createdAt,value
2023-04-28T00:01:41.576Z,101160.28
2023-04-28T00:04:08.456Z,101104.84
2023-04-28T00:06:35.403Z,101111.88
2023-04-28T00:09:01.987Z,101033.84
2023-04-28T00:11:28.504Z,101108.81
2023-04-28T00:13:55.158Z,101118.59
2023-04-28T00:16:21.821Z,101143.59
2023-04-28T00:18:48.398Z,101114.03
2023-04-28T00:21:14.958Z,101118.63
2023-04-28T00:23:41.576Z,101114.16
2023-04-28T00:26:08.186Z,101114.22
2023-04-28T00:28:35.245Z,101105.44
2023-04-28T00:31:11.386Z,101103.56
2023-04-28T00:33:38.968Z,101117.22
2023-04-28T00:36:06.031Z,101080.69
2023-04-28T00:38:33.773Z,101089.75
2023-04-28T00:41:00.747Z,101096.88
2023-04-28T00:43:27.369Z,101075.53
2023-04-28T00:45:54.362Z,101081.84
2023-04-28T00:48:22.449Z,101002.16
2023-04-28T00:50:48.962Z,101020.91
2023-04-28T00:53:15.935Z,101069.28
2023-04-28T00:55:42.515Z,101086.28
2023-04-28T00:58:09.634Z,101106.94
2023-04-28T01:00:36.210Z,100991.56
2023-04-28T01:03:03.729Z,101082.88
2023-04-28T01:05:34.828Z,101063.06
2023-04-28T01:08:01.575Z,101071.03
2023-04-28T01:10:28.257Z,101086.91
2023-04-28T01:12:58.829Z,101068.88
2023-04-28T01:15:28.146Z,101076.78
2023-04-28T01:17:55.441Z,101092.69
2023-04-28T01:20:22.078Z,101089.06
2023-04-28T01:22:48.866Z,101046.22
2023-04-28T01:25:15.650Z,101065.84
2023-04-28T01:27:42.239Z,101055.13
2023-04-28T01:30:10.342Z,101044.59
2023-04-28T01:32:37.157Z,101046.31
2023-04-28T01:35:04.037Z,101030.41
2023-04-28T01:37:30.626Z,101048.41
2023-04-28T01:39:57.306Z,101062.66
2023-04-28T01:42:24.992Z,101008.22
2023-04-28T01:44:52.637Z,101023.38
2023-04-28T01:47:20.044Z,101048.41
2023-04-28T01:49:48.261Z,101042.03
2023-04-28T01:52:14.975Z,101012.50
2023-04-28T01:54:41.577Z,101050.84
2023-04-28T01:57:08.144Z,101047.16
2023-04-28T01:59:35.767Z,101001.63
2023-04-28T02:02:02.503Z,101020.25
2023-04-28T02:04:29.335Z,101001.63
2023-04-28T02:06:56.002Z,101021.31
2023-04-28T02:09:22.670Z,101017.72
2023-04-28T02:11:50.674Z,100939.16
2023-04-28T02:14:17.607Z,101004.53
2023-04-28T02:16:44.405Z,101012.56
2023-04-28T02:19:11.756Z,101001.91
2023-04-28T02:21:38.348Z,100969.91
2023-04-28T02:24:08.109Z,100986.13
2023-04-28T02:26:35.348Z,101014.75
2023-04-28T02:29:04.205Z,101018.34
2023-04-28T02:31:32.974Z,101005.06
2023-04-28T02:33:59.890Z,101023.84
2023-04-28T02:36:27.773Z,100980.06
2023-04-28T02:38:55.433Z,101003.44
2023-04-28T02:41:22.990Z,100976.72
2023-04-28T02:43:49.847Z,100981.28
2023-04-28T02:46:16.467Z,100966.03
2023-04-28T02:48:43.101Z,100876.06
2023-04-28T02:51:12.151Z,100958.41
2023-04-28T02:53:38.815Z,100946.78
2023-04-28T02:56:05.641Z,100944.06
2023-04-28T02:58:33.350Z,100937.59
2023-04-28T03:01:00.507Z,100926.19
2023-04-28T03:03:27.243Z,100953.88
2023-04-28T03:05:56.514Z,100908.38
2023-04-28T03:08:23.717Z,100930.75
2023-04-28T03:10:50.412Z,100836.00
2023-04-28T03:13:17.032Z,100892.28
2023-04-28T03:15:43.701Z,100809.28
2023-04-28T03:18:10.438Z,100883.41
2023-04-28T03:20:37.323Z,100906.81
2023-04-28T03:23:04.511Z,100906.03
2023-04-28T03:25:31.282Z,100922.22
2023-04-28T03:27:57.880Z,100897.34
2023-04-28T03:30:25.456Z,100914.28
2023-04-28T03:32:52.262Z,100921.47
2023-04-28T03:35:19.094Z,100834.00
2023-04-28T03:37:45.797Z,100898.53
2023-04-28T03:40:13.222Z,100916.53
2023-04-28T03:43:17.889Z,100912.13
2023-04-28T03:46:07.578Z,100898.09
2023-04-28T03:48:34.543Z,100887.44
2023-04-28T03:51:02.479Z,100875.00
2023-04-28T03:53:29.397Z,100892.25
2023-04-28T03:55:56.298Z,100910.00
2023-04-28T03:58:23.026Z,100907.44
2023-04-28T04:00:50.981Z,100795.91
2023-04-28T04:03:17.942Z,100879.84
2023-04-28T04:05:44.876Z,100896.81
2023-04-28T04:08:11.815Z,100808.38
2023-04-28T04:10:39.415Z,100895.97
2023-04-28T04:13:06.076Z,100908.53
2023-04-28T04:15:32.857Z,100908.47
2023-04-28T04:17:59.760Z,100803.19
2023-04-28T04:20:31.575Z,100866.66
2023-04-28T04:22:58.114Z,100844.44
2023-04-28T04:25:24.836Z,100858.78
2023-04-28T04:27:52.677Z,100859.59
2023-04-28T04:30:19.343Z,100854.22
2023-04-28T04:32:45.982Z,100845.28
2023-04-28T04:35:12.736Z,100844.28
2023-04-28T04:37:39.685Z,100791.44
2023-04-28T04:40:07.120Z,100836.84
2023-04-28T04:42:39.659Z,100872.59
2023-04-28T04:45:08.795Z,100879.69
2023-04-28T04:47:36.153Z,100803.78
2023-04-28T04:50:02.910Z,100855.72
2023-04-28T04:52:29.649Z,100851.31
2023-04-28T04:54:56.576Z,100841.59
2023-04-28T04:57:24.451Z,100769.38
2023-04-28T05:00:06.720Z,100850.66
2023-04-28T05:02:34.574Z,100847.13
2023-04-28T05:05:16.713Z,100614.25
2023-04-28T05:07:49.748Z,100860.47
2023-04-28T05:10:16.876Z,100850.66
2023-04-28T05:12:46.221Z,100849.91
2023-04-28T05:15:17.787Z,100858.84
2023-04-28T05:17:56.699Z,100845.50
2023-04-28T05:20:24.013Z,100853.66
2023-04-28T05:22:50.914Z,100857.28
2023-04-28T05:25:17.876Z,100830.59
2023-04-28T05:27:44.637Z,100847.56
2023-04-28T05:30:11.451Z,100841.34
2023-04-28T05:32:38.835Z,100838.78
2023-04-28T05:35:06.786Z,100823.66
2023-04-28T05:37:33.607Z,100833.66
2023-04-28T05:40:00.447Z,100817.69
2023-04-28T05:42:27.169Z,100823.03
2023-04-28T05:44:53.909Z,100818.72
2023-04-28T05:47:21.385Z,100758.97
2023-04-28T05:49:48.003Z,100805.50
2023-04-28T05:52:14.849Z,100808.22
2023-04-28T05:54:41.660Z,100738.84
2023-04-28T05:57:09.597Z,100806.69
2023-04-28T05:59:36.852Z,100799.59
2023-04-28T06:02:03.527Z,100803.28
2023-04-28T06:04:32.532Z,100712.47
2023-04-28T06:06:59.600Z,100806.09
2023-04-28T06:09:29.827Z,100835.53
2023-04-28T06:11:56.455Z,100814.13
2023-04-28T06:14:23.313Z,100782.03
2023-04-28T06:16:51.118Z,100848.94
2023-04-28T06:19:20.623Z,100831.94
2023-04-28T06:21:50.167Z,100835.53
2023-04-28T06:24:18.105Z,100747.50
2023-04-28T06:26:46.587Z,100824.25
2023-04-28T06:29:13.274Z,100809.19
2023-04-28T06:31:40.613Z,100823.47
2023-04-28T06:34:07.536Z,100830.69
2023-04-28T06:36:35.832Z,100817.41
2023-04-28T06:39:05.177Z,100846.88
2023-04-28T06:41:33.754Z,100830.06
2023-04-28T06:44:02.411Z,100823.91
2023-04-28T06:46:30.198Z,100841.88
2023-04-28T06:48:57.365Z,100814.34
2023-04-28T06:51:24.428Z,100834.00
2023-04-28T06:53:53.366Z,100832.31
2023-04-28T06:56:20.334Z,100783.34
2023-04-28T06:58:48.240Z,100801.25
2023-04-28T07:01:14.815Z,100747.84
2023-04-28T07:03:42.904Z,100778.16
2023-04-28T07:06:09.771Z,100801.28
2023-04-28T07:08:36.918Z,100815.56
2023-04-28T07:11:04.711Z,100815.56
2023-04-28T07:13:32.663Z,100813.75
2023-04-28T07:15:59.454Z,100785.25
2023-04-28T07:18:26.275Z,100808.44
2023-04-28T07:20:53.208Z,100748.72
2023-04-28T07:23:19.805Z,100817.31
2023-04-28T07:25:46.445Z,100751.50
2023-04-28T07:28:14.117Z,100796.03
2023-04-28T07:30:40.677Z,100788.91
2023-04-28T07:33:07.398Z,100824.50
2023-04-28T07:35:34.144Z,100816.50
2023-04-28T07:38:01.987Z,100813.81
2023-04-28T07:40:28.909Z,100807.59
2023-04-28T07:42:55.506Z,100807.59
2023-04-28T07:45:22.115Z,100683.09
2023-04-28T07:47:48.718Z,100820.94
2023-04-28T07:50:16.193Z,100820.94
2023-04-28T07:52:43.169Z,100792.47
2023-04-28T07:55:09.802Z,100817.38
2023-04-28T07:57:36.905Z,100795.13
2023-04-28T08:00:04.035Z,100786.16
2023-04-28T08:02:38.517Z,100808.31
2023-04-28T08:05:07.188Z,100716.59
2023-04-28T08:07:33.971Z,100785.78
2023-04-28T08:10:01.206Z,100805.25
2023-04-28T08:12:28.242Z,100712.72
2023-04-28T08:14:55.158Z,100782.81
2023-04-28T08:17:21.828Z,100807.75
2023-04-28T08:19:48.799Z,100788.84
2023-04-28T08:22:15.806Z,100792.94
2023-04-28T08:24:42.423Z,100793.59
2023-04-28T08:27:08.999Z,100800.38
2023-04-28T08:29:35.669Z,100778.84
2023-04-28T08:32:02.369Z,100812.78
2023-04-28T08:34:29.348Z,100791.63
2023-04-28T08:36:55.961Z,100736.06
2023-04-28T08:39:23.716Z,100765.84
2023-04-28T08:41:50.679Z,100642.69
2023-04-28T08:44:17.912Z,100782.25
2023-04-28T08:46:47.124Z,100819.75
2023-04-28T08:49:18.883Z,100790.47
2023-04-28T08:51:50.139Z,100796.69
2023-04-28T08:54:26.102Z,100818.91
2023-04-28T08:56:54.308Z,100804.63
2023-04-28T08:59:21.437Z,100797.44
2023-04-28T09:01:52.341Z,100745.78
2023-04-28T09:04:20.320Z,100812.47
2023-04-28T09:06:47.598Z,100734.28
2023-04-28T09:09:25.367Z,100792.00
2023-04-28T09:11:56.808Z,100815.06
2023-04-28T09:14:23.919Z,100801.63
2023-04-28T09:16:51.764Z,100805.09
2023-04-28T09:19:18.776Z,100749.16
2023-04-28T09:21:54.537Z,100804.31
2023-04-28T09:24:32.457Z,100746.63
2023-04-28T09:27:00.737Z,100748.38
2023-04-28T09:29:27.247Z,100804.31
2023-04-28T09:31:54.338Z,100798.84
2023-04-28T09:34:22.096Z,100796.09
2023-04-28T09:36:48.797Z,100796.94
2023-04-28T09:39:15.452Z,100786.09
2023-04-28T09:41:45.429Z,100803.75
2023-04-28T09:44:19.849Z,100785.13
2023-04-28T09:46:47.614Z,100790.34
2023-04-28T09:49:15.419Z,100773.47
2023-04-28T09:51:42.681Z,100783.31
2023-04-28T09:54:09.431Z,100784.28
2023-04-28T09:56:42.456Z,100796.69
2023-04-28T09:59:09.743Z,100786.84
2023-04-28T10:01:41.546Z,100733.47
2023-04-28T10:04:09.092Z,100772.50
2023-04-28T10:06:39.249Z,100754.72
2023-04-28T10:09:07.079Z,100769.75
2023-04-28T10:11:34.621Z,100717.38
2023-04-28T10:14:01.662Z,100774.16
2023-04-28T10:16:31.280Z,100782.13
2023-04-28T10:18:58.627Z,100762.63
2023-04-28T10:21:27.139Z,100762.69
2023-04-28T10:24:15.050Z,100767.97
2023-04-28T10:26:53.925Z,100794.59
2023-04-28T10:29:25.621Z,100779.63
2023-04-28T10:32:17.951Z,100803.69
2023-04-28T10:34:45.218Z,100746.78
2023-04-28T10:37:11.773Z,100776.00
2023-04-28T10:39:38.498Z,100775.81
2023-04-28T10:42:05.055Z,100771.28
2023-04-28T10:44:31.653Z,100798.66
2023-04-28T10:47:04.883Z,100788.66
2023-04-28T10:49:57.561Z,100785.25
2023-04-28T10:52:33.555Z,100792.38
2023-04-28T10:55:30.660Z,100789.00
2023-04-28T10:58:26.360Z,100747.59
2023-04-28T11:00:53.088Z,100791.34
2023-04-28T11:03:47.854Z,100796.75
2023-04-28T11:06:26.698Z,100787.78
2023-04-28T11:08:55.739Z,100786.19
2023-04-28T11:11:25.721Z,100786.22
2023-04-28T11:14:13.363Z,100785.34
2023-04-28T11:16:56.380Z,100799.53
2023-04-28T11:19:24.694Z,100772.78
2023-04-28T11:21:53.046Z,100793.13
2023-04-28T11:24:20.592Z,100789.59
2023-04-28T11:26:47.505Z,100708.75
2023-04-28T11:29:17.476Z,100775.28
2023-04-28T11:31:51.359Z,100790.28
2023-04-28T11:34:22.143Z,100784.84
2023-04-28T11:36:48.811Z,100752.69
2023-04-28T11:39:15.429Z,100760.50
2023-04-28T11:41:44.151Z,100781.88
2023-04-28T11:44:19.622Z,100776.53
2023-04-28T11:46:51.676Z,100748.13
2023-04-28T11:49:20.311Z,100701.50
2023-04-28T11:51:49.839Z,100758.13
2023-04-28T11:54:27.661Z,100674.69
2023-04-28T11:56:56.594Z,100720.09
2023-04-28T11:59:25.825Z,100715.59
2023-04-28T12:01:54.638Z,100784.78
2023-04-28T12:04:40.923Z,100765.47
2023-04-28T12:07:12.542Z,100792.94
2023-04-28T12:09:40.709Z,100789.44
2023-04-28T12:12:12.406Z,100740.72
2023-04-28T12:15:02.050Z,100781.13
2023-04-28T12:17:34.475Z,100752.00
2023-04-28T12:20:04.445Z,100774.16
2023-04-28T12:22:31.401Z,100789.94
2023-04-28T12:25:09.304Z,100760.38
2023-04-28T12:27:39.457Z,100795.69
2023-04-28T12:30:25.362Z,100751.13
2023-04-28T12:32:52.261Z,100774.13
2023-04-28T12:35:25.708Z,100786.63
2023-04-28T12:37:53.677Z,100780.56
2023-04-28T12:40:20.340Z,100802.84
2023-04-28T12:42:47.029Z,100774.78
2023-04-28T12:45:14.031Z,100807.06
2023-04-28T12:47:40.650Z,100794.03
2023-04-28T12:50:08.008Z,100799.47
2023-04-28T12:52:35.791Z,100803.09
2023-04-28T12:55:03.029Z,100792.47
2023-04-28T12:57:29.612Z,100715.28
2023-04-28T12:59:57.135Z,100781.16
2023-04-28T13:02:24.114Z,100808.00
2023-04-28T13:04:52.183Z,100800.09
2023-04-28T13:07:19.184Z,100807.25
2023-04-28T13:09:47.331Z,100753.03
2023-04-28T13:12:14.662Z,100809.03
2023-04-28T13:14:41.836Z,100815.31
2023-04-28T13:17:09.005Z,100774.50
2023-04-28T13:19:35.725Z,100715.03
2023-04-28T13:22:05.282Z,100745.31
2023-04-28T13:24:33.517Z,100831.63
2023-04-28T13:27:00.447Z,100813.84
2023-04-28T13:29:26.968Z,100826.28
2023-04-28T13:31:53.716Z,100815.59
2023-04-28T13:34:20.347Z,100805.78
2023-04-28T13:36:48.172Z,100807.56
2023-04-28T13:39:15.050Z,100766.66
2023-04-28T13:41:42.617Z,100820.88
2023-04-28T13:44:09.531Z,100811.97
2023-04-28T13:46:36.154Z,100823.50
2023-04-28T13:49:02.777Z,100807.44
2023-04-28T13:51:29.436Z,100755.81
2023-04-28T13:53:56.482Z,100812.59
2023-04-28T13:56:23.042Z,100818.56
2023-04-28T13:58:49.766Z,100811.97
2023-04-28T14:01:16.432Z,100808.00
2023-04-28T14:03:45.508Z,100804.56
2023-04-28T14:06:12.846Z,100682.72
2023-04-28T14:08:39.637Z,100797.38
2023-04-28T14:11:06.527Z,100766.69
2023-04-28T14:13:33.389Z,100809.00
2023-04-28T14:16:00.155Z,100817.28
2023-04-28T14:18:29.931Z,100760.00
2023-04-28T14:20:56.497Z,100801.19
2023-04-28T14:23:23.137Z,100815.59
2023-04-28T14:25:50.248Z,100824.69
2023-04-28T14:28:17.216Z,100828.56
2023-04-28T14:30:44.103Z,100811.88
2023-04-28T14:33:10.873Z,100764.13
2023-04-28T14:35:37.529Z,100819.34
2023-04-28T14:38:04.317Z,100807.03
2023-04-28T14:40:31.349Z,100757.31
2023-04-28T14:42:58.173Z,100809.69
2023-04-28T14:45:25.002Z,100815.00
2023-04-28T14:47:53.441Z,100821.09
2023-04-28T14:50:21.015Z,100818.38
2023-04-28T14:52:47.595Z,100758.84
2023-04-28T14:55:14.463Z,100804.19
2023-04-28T14:57:41.974Z,100815.81
2023-04-28T15:00:09.170Z,100825.59
2023-04-28T15:02:35.930Z,100824.75
2023-04-28T15:05:03.322Z,100801.69
2023-04-28T15:07:31.729Z,100742.13
2023-04-28T15:09:59.448Z,100817.81
2023-04-28T15:12:26.938Z,100815.34
2023-04-28T15:14:53.873Z,100819.84
2023-04-28T15:17:23.561Z,100831.50
2023-04-28T15:19:50.146Z,100840.44
2023-04-28T15:22:16.985Z,100849.34
2023-04-28T15:24:43.692Z,100850.22
2023-04-28T15:27:10.801Z,100811.97
2023-04-28T15:29:37.457Z,100800.34
2023-04-28T15:32:04.955Z,100751.38
2023-04-28T15:34:31.565Z,100827.75
2023-04-28T15:36:58.189Z,100760.22
2023-04-28T15:39:25.585Z,100735.38
2023-04-28T15:41:53.158Z,100848.31
2023-04-28T15:44:19.902Z,100769.25
2023-04-28T15:46:46.714Z,100852.88
2023-04-28T15:49:13.756Z,100855.53
2023-04-28T15:51:40.348Z,100856.44
2023-04-28T15:54:07.001Z,100839.53
2023-04-28T15:56:33.837Z,100848.41
2023-04-28T15:59:00.443Z,100829.72
2023-04-28T16:01:28.417Z,100871.50
2023-04-28T16:03:55.241Z,100778.09
2023-04-28T16:06:22.047Z,100864.31
2023-04-28T16:08:48.704Z,100861.66
2023-04-28T16:11:19.297Z,100838.50
2023-04-28T16:13:45.906Z,100865.22
2023-04-28T16:16:12.596Z,100865.22
2023-04-28T16:18:39.483Z,100747.91
2023-04-28T16:21:06.500Z,100874.16
2023-04-28T16:23:33.397Z,100814.59
2023-04-28T16:26:00.193Z,100854.66
2023-04-28T16:28:27.108Z,100879.56
2023-04-28T16:30:54.866Z,100867.16
2023-04-28T16:33:21.513Z,100786.19
2023-04-28T16:35:56.063Z,100858.22
2023-04-28T16:38:22.798Z,100874.25
2023-04-28T16:40:50.690Z,100879.63
2023-04-28T16:43:18.000Z,100851.16
2023-04-28T16:45:44.799Z,100866.28
2023-04-28T16:48:11.650Z,100860.97
2023-04-28T16:50:40.769Z,100858.31
2023-04-28T16:53:08.102Z,100853.84
2023-04-28T16:55:36.545Z,100855.59
2023-04-28T16:58:03.818Z,100817.34
2023-04-28T17:00:30.951Z,100869.81
2023-04-28T17:02:57.697Z,100860.94
2023-04-28T17:05:24.444Z,100860.03
2023-04-28T17:07:51.052Z,100874.25
2023-04-28T17:10:17.854Z,100884.97
2023-04-28T17:12:45.573Z,100875.25
2023-04-28T17:15:18.398Z,100894.84
2023-04-28T17:17:48.998Z,100869.03
2023-04-28T17:20:19.806Z,100871.69
2023-04-28T17:22:47.502Z,100889.50
2023-04-28T17:25:14.491Z,100874.38
2023-04-28T17:27:41.094Z,100861.00
2023-04-28T17:30:10.963Z,100862.78
2023-04-28T17:32:38.140Z,100867.25
2023-04-28T17:35:07.311Z,100881.50
2023-04-28T17:37:34.612Z,100886.84
2023-04-28T17:40:01.941Z,100899.28
2023-04-28T17:42:31.455Z,100877.03
2023-04-28T17:44:58.065Z,100903.75
2023-04-28T17:47:24.747Z,100894.84
2023-04-28T17:49:51.842Z,100821.84
2023-04-28T17:52:18.587Z,100868.09
2023-04-28T17:54:45.238Z,100908.22
2023-04-28T17:57:12.925Z,100891.25
2023-04-28T17:59:40.618Z,100871.66
2023-04-28T18:02:11.259Z,100917.97
2023-04-28T18:04:38.418Z,100913.50
2023-04-28T18:07:06.391Z,100897.47
2023-04-28T18:09:33.219Z,100897.47
2023-04-28T18:12:02.293Z,100921.50
2023-04-28T18:14:31.234Z,100912.59
2023-04-28T18:16:58.428Z,100925.06
2023-04-28T18:19:28.614Z,100868.09
2023-04-28T18:21:56.717Z,100911.66
2023-04-28T18:24:23.992Z,100903.66
2023-04-28T18:26:50.653Z,100900.06
2023-04-28T18:29:18.840Z,100909.88
2023-04-28T18:31:46.275Z,100938.34
2023-04-28T18:34:13.259Z,100868.91
2023-04-28T18:36:39.949Z,100928.53
2023-04-28T18:41:53.242Z,100935.66
2023-04-28T18:44:21.008Z,100941.00
2023-04-28T18:46:47.719Z,100927.63
2023-04-28T18:49:14.618Z,100937.44
2023-04-28T18:51:41.184Z,100945.44
2023-04-28T18:54:07.798Z,100924.03
2023-04-28T18:56:35.045Z,100942.78
2023-04-28T18:59:04.258Z,100926.69
2023-04-28T19:01:30.963Z,100863.44
2023-04-28T19:03:58.354Z,100930.25
2023-04-28T19:06:25.617Z,100956.06
2023-04-28T19:08:52.297Z,100952.50
2023-04-28T19:11:18.914Z,100912.38
2023-04-28T19:13:45.598Z,100950.69
2023-04-28T19:16:12.590Z,100952.47
2023-04-28T19:18:39.757Z,100969.34
2023-04-28T19:21:06.406Z,100959.56
2023-04-28T19:23:33.713Z,100977.41
2023-04-28T19:26:01.897Z,100913.16
2023-04-28T19:28:28.927Z,100964.84
2023-04-28T19:30:59.216Z,100976.41
2023-04-28T19:33:28.261Z,101004.88
2023-04-28T19:35:55.390Z,100995.03
2023-04-28T19:38:23.395Z,100967.38
2023-04-28T19:40:57.982Z,101019.06
2023-04-28T19:43:24.594Z,101006.53
2023-04-28T19:45:51.458Z,100992.25
2023-04-28T19:48:18.781Z,100996.69
2023-04-28T19:50:47.281Z,101020.81
2023-04-28T19:53:14.697Z,101005.56
2023-04-28T19:55:41.272Z,101017.09
2023-04-28T19:58:09.714Z,101009.81
2023-04-28T20:00:36.694Z,101041.03
2023-04-28T20:03:03.978Z,101005.25
2023-04-28T20:05:31.301Z,101035.50
2023-04-28T20:07:57.964Z,101030.09
2023-04-28T20:10:25.622Z,101050.50
2023-04-28T20:12:53.823Z,100980.03
2023-04-28T20:15:20.798Z,101048.72
2023-04-28T20:17:48.463Z,101022.84
2023-04-28T20:20:15.512Z,101069.19
2023-04-28T20:22:42.150Z,101035.22
2023-04-28T20:25:10.442Z,101045.13
2023-04-28T20:27:37.430Z,100979.91
2023-04-28T20:30:05.715Z,101065.59
2023-04-28T20:32:32.499Z,101032.53
2023-04-28T20:35:02.748Z,101062.81
2023-04-28T20:37:30.095Z,101062.72
2023-04-28T20:39:56.920Z,101061.78
2023-04-28T20:42:23.528Z,101073.47
2023-04-28T20:44:50.893Z,101065.38
2023-04-28T20:47:17.902Z,101079.69
2023-04-28T20:49:44.507Z,101043.94
2023-04-28T20:52:11.226Z,101063.59
2023-04-28T20:54:37.943Z,101079.63
2023-04-28T20:57:04.941Z,101015.28
2023-04-28T20:59:32.855Z,101079.56
2023-04-28T21:02:00.202Z,101092.03
2023-04-28T21:04:28.136Z,101083.19
2023-04-28T21:06:55.468Z,101054.63
2023-04-28T21:09:24.794Z,100979.56
2023-04-28T21:11:51.377Z,101059.81
2023-04-28T21:14:18.007Z,101073.16
2023-04-28T21:16:44.615Z,101036.44
2023-04-28T21:19:11.633Z,101064.97
2023-04-28T21:21:38.714Z,101059.63
2023-04-28T21:24:06.127Z,101057.78
2023-04-28T21:26:32.977Z,101072.00
2023-04-28T21:28:59.901Z,101069.34
2023-04-28T21:31:27.038Z,101080.88
2023-04-28T21:33:53.669Z,101072.88
2023-04-28T21:36:20.476Z,101098.75
2023-04-28T21:38:47.225Z,101068.25
2023-04-28T21:41:14.142Z,101070.81
2023-04-28T21:43:40.751Z,101107.38
2023-04-28T21:46:07.983Z,101084.19
2023-04-28T21:48:35.218Z,101061.81
2023-04-28T21:51:01.813Z,101075.94
2023-04-28T21:53:28.872Z,101092.00
2023-04-28T21:55:55.467Z,101110.78
2023-04-28T21:58:22.152Z,101101.81
2023-04-28T22:00:48.991Z,101086.63
2023-04-28T22:03:16.362Z,101073.13
2023-04-28T22:05:44.880Z,101083.94
2023-04-28T22:08:12.000Z,100989.00
2023-04-28T22:10:38.777Z,101076.66
2023-04-28T22:13:06.383Z,101109.75
2023-04-28T22:15:33.125Z,101088.13
2023-04-28T22:17:59.825Z,101070.19
2023-04-28T22:20:26.881Z,101108.53
2023-04-28T22:22:53.988Z,101078.81
2023-04-28T22:25:20.921Z,101124.38
2023-04-28T22:27:47.576Z,101105.47
2023-04-28T22:30:14.663Z,101091.03
2023-04-28T22:32:46.749Z,101101.00
2023-04-28T22:35:13.906Z,101076.59
2023-04-28T22:37:41.514Z,101104.41
2023-04-28T22:40:09.111Z,101058.00
2023-04-28T22:42:37.203Z,101102.69
2023-04-28T22:45:04.426Z,101138.31
2023-04-28T22:47:31.084Z,101118.56
2023-04-28T22:49:57.745Z,101153.41
2023-04-28T22:52:24.497Z,101065.75
2023-04-28T22:54:51.319Z,101109.47
2023-04-28T22:57:18.044Z,101095.13
2023-04-28T22:59:45.113Z,101162.00
2023-04-28T23:02:13.543Z,101114.56
2023-04-28T23:04:41.062Z,101116.31
2023-04-28T23:07:08.762Z,101159.13
2023-04-28T23:09:37.197Z,101159.13
2023-04-28T23:12:04.931Z,101140.19
2023-04-28T23:14:33.807Z,101096.41
2023-04-28T23:17:00.429Z,101160.72
2023-04-28T23:19:27.027Z,101134.75
2023-04-28T23:21:54.461Z,101135.38
2023-04-28T23:24:21.130Z,101169.53
2023-04-28T23:26:47.659Z,101144.56
2023-04-28T23:29:14.438Z,101166.72
2023-04-28T23:31:41.286Z,101155.13
2023-04-28T23:34:08.608Z,101129.00
2023-04-28T23:36:36.426Z,101202.28
2023-04-28T23:39:03.178Z,101176.25
2023-04-28T23:41:29.733Z,101169.09
2023-04-28T23:43:56.804Z,101177.25
2023-04-28T23:46:23.864Z,101176.41
2023-04-28T23:48:50.833Z,101201.38
2023-04-28T23:51:17.508Z,101163.84
2023-04-28T23:53:44.241Z,101187.28
2023-04-28T23:56:11.864Z,101166.50
2023-04-28T23:58:39.878Z,101122.56
